createdAt,value
2018-07-10T00:01:02.572Z,100021.00
2018-07-10T00:04:58.072Z,100014.00
2018-07-10T00:07:53.938Z,100014.00
2018-07-10T00:10:45.883Z,100010.00
2018-07-10T00:13:15.911Z,100006.00
2018-07-10T00:15:45.887Z,100009.00
2018-07-10T00:18:16.208Z,100008.00
2018-07-10T00:20:46.176Z,100007.00
2018-07-10T00:23:16.464Z,99999.00
2018-07-10T00:25:46.416Z,99997.00
2018-07-10T00:28:16.649Z,99996.00
2018-07-10T00:30:46.608Z,99990.00
2018-07-10T00:33:16.568Z,99991.00
2018-07-10T00:35:46.500Z,99990.00
2018-07-10T00:38:33.492Z,99988.00
2018-07-10T00:41:03.432Z,99981.00
2018-07-10T00:43:33.792Z,99981.00
2018-07-10T00:46:03.742Z,99977.00
2018-07-10T00:48:33.687Z,99974.00
2018-07-10T00:51:03.625Z,99979.00
2018-07-10T00:53:33.568Z,99974.00
2018-07-10T00:56:03.488Z,99977.00
2018-07-10T00:58:33.443Z,99972.00
2018-07-10T01:01:03.409Z,99970.00
2018-07-10T01:03:33.352Z,99972.00
2018-07-10T01:06:03.275Z,99957.00
2018-07-10T01:08:33.220Z,99961.00
2018-07-10T01:11:08.389Z,99953.00
2018-07-10T01:13:39.860Z,99963.00
2018-07-10T01:16:09.797Z,99957.00
2018-07-10T01:18:45.447Z,99959.00
2018-07-10T01:21:19.964Z,99959.00
2018-07-10T01:23:57.211Z,99956.00
2018-07-10T01:26:28.491Z,99950.00
2018-07-10T01:29:02.777Z,99951.00
2018-07-10T01:31:32.704Z,99949.00
2018-07-10T01:34:02.631Z,99953.00
2018-07-10T01:36:32.554Z,99954.00
2018-07-10T01:39:02.575Z,99953.00
2018-07-10T01:41:32.472Z,99952.00
2018-07-10T01:44:02.570Z,99947.00
2018-07-10T01:46:32.499Z,99950.00
2018-07-10T01:49:02.628Z,99952.00
2018-07-10T01:51:33.652Z,99947.00
2018-07-10T01:54:03.603Z,99943.00
2018-07-10T01:56:33.580Z,99941.00
2018-07-10T01:59:03.719Z,99942.00
2018-07-10T02:01:33.670Z,99939.00
2018-07-10T02:04:03.619Z,99933.00
2018-07-10T02:06:33.548Z,99929.00
2018-07-10T02:09:04.755Z,99927.00
2018-07-10T02:11:34.726Z,99924.00
2018-07-10T02:14:04.758Z,99923.00
2018-07-10T02:16:34.632Z,99924.00
2018-07-10T02:19:04.621Z,99918.00
2018-07-10T02:21:34.549Z,99922.00
2018-07-10T02:24:04.581Z,99915.00
2018-07-10T02:26:34.503Z,99916.00
2018-07-10T02:29:04.428Z,99915.00
2018-07-10T02:31:34.360Z,99917.00
2018-07-10T02:34:04.312Z,99915.00
2018-07-10T02:36:34.444Z,99908.00
2018-07-10T02:39:04.796Z,99905.00
2018-07-10T02:41:34.975Z,99899.00
2018-07-10T02:44:05.912Z,99894.00
2018-07-10T02:46:37.269Z,99892.00
2018-07-10T02:49:14.232Z,99893.00
2018-07-10T02:51:56.701Z,99889.00
2018-07-10T02:54:29.760Z,99892.00
2018-07-10T02:56:59.681Z,99893.00
2018-07-10T02:59:37.332Z,99889.00
2018-07-10T03:02:22.187Z,99892.00
2018-07-10T03:05:06.420Z,99882.00
2018-07-10T03:07:38.472Z,99886.00
2018-07-10T03:10:08.502Z,99889.00
2018-07-10T03:12:40.037Z,99890.00
2018-07-10T03:15:12.463Z,99890.00
2018-07-10T03:17:42.441Z,99892.00
2018-07-10T03:20:12.436Z,99891.00
2018-07-10T03:22:42.600Z,99896.00
2018-07-10T03:25:12.576Z,99901.00
2018-07-10T03:27:42.628Z,99902.00
2018-07-10T03:30:12.579Z,99900.00
2018-07-10T03:32:42.499Z,99904.00
2018-07-10T03:35:12.452Z,99904.00
2018-07-10T03:37:42.460Z,99901.00
2018-07-10T03:40:12.616Z,99901.00
2018-07-10T03:42:42.538Z,99897.00
2018-07-10T03:45:13.616Z,99902.00
2018-07-10T03:47:44.434Z,99903.00
2018-07-10T03:50:14.742Z,99907.00
2018-07-10T03:52:45.644Z,99912.00
2018-07-10T03:55:17.384Z,99911.00
2018-07-10T03:57:50.099Z,99906.00
2018-07-10T04:00:20.070Z,99907.00
2018-07-10T04:02:51.332Z,99907.00
2018-07-10T04:05:23.576Z,99903.00
2018-07-10T04:07:55.780Z,99900.00
2018-07-10T04:10:29.568Z,99895.00
2018-07-10T04:13:07.049Z,99899.00
2018-07-10T04:15:37.595Z,99894.00
2018-07-10T04:18:12.552Z,99898.00
2018-07-10T04:20:54.687Z,99898.00
2018-07-10T04:23:28.555Z,99899.00
2018-07-10T04:25:59.007Z,99902.00
2018-07-10T04:28:33.658Z,99897.00
2018-07-10T04:31:25.837Z,99896.00
2018-07-10T04:33:55.756Z,99902.00
2018-07-10T04:36:25.716Z,99899.00
2018-07-10T04:38:58.416Z,99896.00
2018-07-10T04:41:31.009Z,99896.00
2018-07-10T04:44:11.734Z,99892.00
2018-07-10T04:46:48.816Z,99895.00
2018-07-10T04:49:44.076Z,99895.00
2018-07-10T04:52:29.577Z,99895.00
2018-07-10T04:55:09.472Z,99899.00
2018-07-10T04:58:17.411Z,99892.00
2018-07-10T05:01:00.572Z,99885.00
2018-07-10T05:03:31.582Z,99889.00
2018-07-10T05:06:05.628Z,99886.00
2018-07-10T05:08:35.903Z,99875.00
2018-07-10T05:11:05.889Z,99878.00
2018-07-10T05:13:37.027Z,99881.00
2018-07-10T05:16:07.049Z,99884.00
2018-07-10T05:18:37.264Z,99885.00
2018-07-10T05:21:12.697Z,99880.00
2018-07-10T05:23:43.572Z,99886.00
2018-07-10T05:26:16.445Z,99883.00
2018-07-10T05:28:50.994Z,99881.00
2018-07-10T05:31:20.867Z,99885.00
2018-07-10T05:33:52.187Z,99889.00
2018-07-10T05:36:24.397Z,99887.00
2018-07-10T05:39:05.301Z,99894.00
2018-07-10T05:41:40.213Z,99895.00
2018-07-10T05:44:10.173Z,99889.00
2018-07-10T05:46:40.120Z,99898.00
2018-07-10T05:49:10.051Z,99896.00
2018-07-10T05:51:49.465Z,99899.00
2018-07-10T05:54:19.899Z,99887.00
2018-07-10T05:56:49.880Z,99891.00
2018-07-10T05:59:19.824Z,99890.00
2018-07-10T06:01:50.117Z,99897.00
2018-07-10T06:04:20.042Z,99901.00
2018-07-10T06:06:49.986Z,99899.00
2018-07-10T06:09:19.911Z,99897.00
2018-07-10T06:11:50.008Z,99908.00
2018-07-10T06:14:19.919Z,99914.00
2018-07-10T06:16:52.488Z,99908.00
2018-07-10T06:19:22.492Z,99908.00
2018-07-10T06:21:53.451Z,99906.00
2018-07-10T06:24:26.368Z,99909.00
2018-07-10T06:27:05.680Z,99909.00
2018-07-10T06:29:57.056Z,99912.00
2018-07-10T06:32:30.935Z,99917.00
2018-07-10T06:35:07.532Z,99914.00
2018-07-10T06:37:42.804Z,99923.00
2018-07-10T06:40:12.769Z,99920.00
2018-07-10T06:42:53.184Z,99919.00
2018-07-10T06:45:23.420Z,99921.00
2018-07-10T06:47:53.712Z,99920.00
2018-07-10T06:50:23.647Z,99915.00
2018-07-10T06:52:53.844Z,99918.00
2018-07-10T06:55:23.544Z,99916.00
2018-07-10T06:57:57.860Z,99920.00
2018-07-10T07:00:28.305Z,99925.00
2018-07-10T07:03:01.525Z,99931.00
2018-07-10T07:05:31.472Z,99937.00
2018-07-10T07:08:01.451Z,99937.00
2018-07-10T07:10:31.332Z,99939.00
2018-07-10T07:13:01.284Z,99938.00
2018-07-10T07:15:31.226Z,99944.00
2018-07-10T07:18:01.192Z,99950.00
2018-07-10T07:20:31.138Z,99955.00
2018-07-10T07:23:01.139Z,99956.00
2018-07-10T07:25:31.080Z,99954.00
2018-07-10T07:28:01.023Z,99953.00
2018-07-10T07:30:31.083Z,99953.00
2018-07-10T07:33:01.032Z,99950.00
2018-07-10T07:35:30.984Z,99955.00
2018-07-10T07:38:00.928Z,99956.00
2018-07-10T07:40:30.847Z,99958.00
2018-07-10T07:43:00.779Z,99956.00
2018-07-10T07:45:30.723Z,99956.00
2018-07-10T07:48:00.663Z,99949.00
2018-07-10T07:50:30.668Z,99960.00
2018-07-10T07:53:00.599Z,99956.00
2018-07-10T07:55:31.202Z,99953.00
2018-07-10T07:58:01.149Z,99956.00
2018-07-10T08:00:31.151Z,99954.00
2018-07-10T08:03:01.035Z,99955.00
2018-07-10T08:05:30.972Z,99954.00
2018-07-10T08:08:00.960Z,99947.00
2018-07-10T08:10:30.936Z,99947.00
2018-07-10T08:13:00.876Z,99947.00
2018-07-10T08:15:30.827Z,99948.00
2018-07-10T08:18:00.821Z,99946.00
2018-07-10T08:20:30.771Z,99952.00
2018-07-10T08:23:00.744Z,99956.00
2018-07-10T08:25:30.672Z,99944.00
2018-07-10T08:28:00.603Z,99948.00
2018-07-10T08:30:30.553Z,99946.00
2018-07-10T08:33:00.496Z,99946.00
2018-07-10T08:35:30.476Z,99943.00
2018-07-10T08:38:00.428Z,99943.00
2018-07-10T08:40:30.371Z,99949.00
2018-07-10T08:43:01.701Z,99946.00
2018-07-10T08:45:31.656Z,99949.00
2018-07-10T08:48:02.281Z,99945.00
2018-07-10T08:50:32.257Z,99945.00
2018-07-10T08:53:02.344Z,99948.00
2018-07-10T08:55:32.280Z,99950.00
2018-07-10T08:58:02.236Z,99947.00
2018-07-10T09:00:32.189Z,99941.00
2018-07-10T09:03:02.145Z,99943.00
2018-07-10T09:05:32.121Z,99939.00
2018-07-10T09:08:02.082Z,99941.00
2018-07-10T09:10:32.014Z,99932.00
2018-07-10T09:13:02.081Z,99922.00
2018-07-10T09:15:32.520Z,99921.00
2018-07-10T09:18:03.575Z,99915.00
2018-07-10T09:20:41.018Z,99908.00
2018-07-10T09:23:11.239Z,99905.00
2018-07-10T09:25:41.312Z,99904.00
2018-07-10T09:28:11.281Z,99902.00
2018-07-10T09:30:41.440Z,99904.00
2018-07-10T09:33:12.345Z,99903.00
2018-07-10T09:35:42.716Z,99904.00
2018-07-10T09:38:12.821Z,99905.00
2018-07-10T09:40:44.212Z,99906.00
2018-07-10T09:43:15.179Z,99901.00
2018-07-10T09:45:45.480Z,99899.00
2018-07-10T09:48:15.487Z,99896.00
2018-07-10T09:50:45.439Z,99889.00
2018-07-10T09:53:15.494Z,99893.00
2018-07-10T09:55:45.423Z,99898.00
2018-07-10T09:58:16.741Z,99894.00
2018-07-10T10:00:51.959Z,99888.00
2018-07-10T10:03:23.496Z,99889.00
2018-07-10T10:05:54.367Z,99885.00
2018-07-10T10:08:24.301Z,99882.00
2018-07-10T10:10:54.315Z,99878.00
2018-07-10T10:13:24.252Z,99875.00
2018-07-10T10:15:54.578Z,99865.00
2018-07-10T10:18:24.670Z,99865.00
2018-07-10T10:20:54.397Z,99863.00
2018-07-10T10:23:24.259Z,99859.00
2018-07-10T10:25:54.408Z,99857.00
2018-07-10T10:28:26.127Z,99854.00
2018-07-10T10:30:56.067Z,99849.00
2018-07-10T10:33:26.012Z,99849.00
2018-07-10T10:35:56.100Z,99853.00
2018-07-10T10:38:26.036Z,99851.00
2018-07-10T10:40:58.971Z,99856.00
2018-07-10T10:43:29.071Z,99851.00
2018-07-10T10:45:59.090Z,99838.00
2018-07-10T10:48:29.038Z,99833.00
2018-07-10T10:50:59.267Z,99825.00
2018-07-10T10:53:29.199Z,99822.00
2018-07-10T10:55:59.344Z,99828.00
2018-07-10T10:58:29.540Z,99832.00
2018-07-10T11:00:59.604Z,99836.00
2018-07-10T11:03:29.604Z,99837.00
2018-07-10T11:05:59.548Z,99843.00
2018-07-10T11:08:29.476Z,99838.00
2018-07-10T11:10:59.432Z,99835.00
2018-07-10T11:13:29.380Z,99840.00
2018-07-10T11:15:59.348Z,99833.00
2018-07-10T11:18:37.295Z,99827.00
2018-07-10T11:21:53.475Z,99824.00
2018-07-10T11:24:23.432Z,99830.00
2018-07-10T11:26:53.402Z,99825.00
2018-07-10T11:29:23.325Z,99833.00
2018-07-10T11:31:53.260Z,99843.00
2018-07-10T11:34:23.189Z,99831.00
2018-07-10T11:36:53.133Z,99832.00
2018-07-10T11:39:23.113Z,99829.00
2018-07-10T11:41:54.029Z,99824.00
2018-07-10T11:44:24.075Z,99828.00
2018-07-10T11:46:54.035Z,99825.00
2018-07-10T11:49:24.057Z,99828.00
2018-07-10T11:51:54.164Z,99842.00
2018-07-10T11:54:24.176Z,99840.00
2018-07-10T11:56:54.124Z,99834.00
2018-07-10T11:59:24.154Z,99828.00
2018-07-10T12:01:54.246Z,99825.00
2018-07-10T12:04:24.172Z,99824.00
2018-07-10T12:06:54.136Z,99820.00
2018-07-10T12:09:24.119Z,99822.00
2018-07-10T12:11:54.020Z,99821.00
2018-07-10T12:14:23.944Z,99819.00
2018-07-10T12:16:53.877Z,99819.00
2018-07-10T12:19:23.941Z,99816.00
2018-07-10T12:21:54.431Z,99817.00
2018-07-10T12:24:24.475Z,99819.00
2018-07-10T12:26:54.888Z,99815.00
2018-07-10T12:29:24.819Z,99812.00
2018-07-10T12:31:54.761Z,99806.00
2018-07-10T12:34:24.747Z,99809.00
2018-07-10T12:36:54.709Z,99807.00
2018-07-10T12:39:24.621Z,99804.00
2018-07-10T12:41:54.610Z,99794.00
2018-07-10T12:44:24.603Z,99792.00
2018-07-10T12:46:54.760Z,99785.00
2018-07-10T12:49:24.702Z,99792.00
2018-07-10T12:51:54.617Z,99790.00
2018-07-10T12:54:24.608Z,99796.00
2018-07-10T12:56:54.539Z,99795.00
2018-07-10T12:59:24.676Z,99793.00
2018-07-10T13:01:54.728Z,99801.00
2018-07-10T13:04:24.826Z,99811.00
2018-07-10T13:06:54.799Z,99818.00
2018-07-10T13:09:24.840Z,99819.00
2018-07-10T13:11:54.772Z,99818.00
2018-07-10T13:14:24.739Z,99819.00
2018-07-10T13:16:54.656Z,99816.00
2018-07-10T13:19:24.595Z,99815.00
2018-07-10T13:21:54.528Z,99817.00
2018-07-10T13:24:24.487Z,99817.00
2018-07-10T13:26:54.527Z,99820.00
2018-07-10T13:29:24.484Z,99822.00
2018-07-10T13:31:54.424Z,99822.00
2018-07-10T13:34:24.367Z,99819.00
2018-07-10T13:36:54.403Z,99811.00
2018-07-10T13:39:24.399Z,99804.00
2018-07-10T13:41:54.088Z,99800.00
2018-07-10T13:44:24.257Z,99797.00
2018-07-10T13:46:54.176Z,99789.00
2018-07-10T13:49:24.157Z,99784.00
2018-07-10T13:51:54.620Z,99776.00
2018-07-10T13:54:24.566Z,99784.00
2018-07-10T13:56:54.591Z,99784.00
2018-07-10T13:59:26.741Z,99784.00
2018-07-10T14:01:57.397Z,99780.00
2018-07-10T14:04:27.339Z,99769.00
2018-07-10T14:06:57.440Z,99774.00
2018-07-10T14:09:27.144Z,99769.00
2018-07-10T14:11:56.983Z,99775.00
2018-07-10T14:14:26.908Z,99772.00
2018-07-10T14:16:56.943Z,99766.00
2018-07-10T14:19:26.933Z,99782.00
2018-07-10T14:21:56.865Z,99775.00
2018-07-10T14:24:26.857Z,99777.00
2018-07-10T14:26:56.816Z,99773.00
2018-07-10T14:29:26.762Z,99769.00
2018-07-10T14:31:56.687Z,99769.00
2018-07-10T14:34:26.656Z,99762.00
2018-07-10T14:36:56.784Z,99763.00
2018-07-10T14:39:26.840Z,99763.00
2018-07-10T14:41:57.264Z,99756.00
2018-07-10T14:44:27.924Z,99751.00
2018-07-10T14:46:57.883Z,99748.00
2018-07-10T14:49:27.832Z,99749.00
2018-07-10T14:51:58.249Z,99745.00
2018-07-10T14:54:28.152Z,99732.00
2018-07-10T14:56:58.088Z,99734.00
2018-07-10T14:59:28.108Z,99736.00
2018-07-10T15:01:58.101Z,99732.00
2018-07-10T15:04:28.267Z,99728.00
2018-07-10T15:06:58.209Z,99730.00
2018-07-10T15:09:32.857Z,99725.00
2018-07-10T15:12:03.575Z,99719.00
2018-07-10T15:14:33.712Z,99726.00
2018-07-10T15:17:08.796Z,99730.00
2018-07-10T15:19:38.872Z,99733.00
2018-07-10T15:22:08.902Z,99730.00
2018-07-10T15:24:38.874Z,99725.00
2018-07-10T15:27:08.819Z,99731.00
2018-07-10T15:29:38.788Z,99728.00
2018-07-10T15:32:08.751Z,99730.00
2018-07-10T15:34:38.729Z,99731.00
2018-07-10T15:37:08.680Z,99739.00
2018-07-10T15:39:38.628Z,99739.00
2018-07-10T15:42:08.681Z,99740.00
2018-07-10T15:44:38.601Z,99741.00
2018-07-10T15:47:08.612Z,99747.00
2018-07-10T15:49:38.647Z,99744.00
2018-07-10T15:52:08.572Z,99740.00
2018-07-10T15:54:38.589Z,99740.00
2018-07-10T15:57:08.524Z,99734.00
2018-07-10T15:59:38.505Z,99733.00
2018-07-10T16:02:08.439Z,99733.00
2018-07-10T16:04:38.379Z,99737.00
2018-07-10T16:07:08.908Z,99739.00
2018-07-10T16:09:39.133Z,99732.00
2018-07-10T16:12:09.146Z,99741.00
2018-07-10T16:14:39.759Z,99748.00
2018-07-10T16:17:21.053Z,99744.00
2018-07-10T16:20:01.916Z,99743.00
2018-07-10T16:22:34.540Z,99738.00
2018-07-10T16:25:26.512Z,99735.00
2018-07-10T16:27:57.820Z,99738.00
2018-07-10T16:30:28.475Z,99737.00
2018-07-10T16:32:58.416Z,99736.00
2018-07-10T16:35:30.295Z,99730.00
2018-07-10T16:38:02.633Z,99729.00
2018-07-10T16:40:32.601Z,99734.00
2018-07-10T16:43:02.632Z,99732.00
2018-07-10T16:45:36.038Z,99726.00
2018-07-10T16:50:13.483Z,99731.00
2018-07-10T16:52:54.992Z,99734.00
2018-07-10T16:55:25.793Z,99734.00
2018-07-10T16:57:55.736Z,99730.00
2018-07-10T17:00:27.344Z,99732.00
2018-07-10T17:02:58.913Z,99729.00
2018-07-10T17:05:28.871Z,99724.00
2018-07-10T17:07:58.928Z,99722.00
2018-07-10T17:10:28.874Z,99716.00
2018-07-10T17:12:58.830Z,99712.00
2018-07-10T17:15:28.764Z,99715.00
2018-07-10T17:17:58.703Z,99710.00
2018-07-10T17:20:28.704Z,99710.00
2018-07-10T17:22:58.740Z,99707.00
2018-07-10T17:25:28.682Z,99692.00
2018-07-10T17:27:58.625Z,99695.00
2018-07-10T17:30:28.693Z,99691.00
2018-07-10T17:32:58.627Z,99694.00
2018-07-10T17:35:28.579Z,99698.00
2018-07-10T17:37:58.572Z,99702.00
2018-07-10T17:40:28.271Z,99708.00
2018-07-10T17:42:58.088Z,99714.00
2018-07-10T17:45:28.041Z,99718.00
2018-07-10T17:47:58.096Z,99706.00
2018-07-10T17:50:28.069Z,99705.00
2018-07-10T17:52:58.024Z,99707.00
2018-07-10T17:55:28.057Z,99702.00
2018-07-10T17:58:03.143Z,99704.00
2018-07-10T18:00:33.336Z,99707.00
2018-07-10T18:03:03.315Z,99705.00
2018-07-10T18:05:33.432Z,99706.00
2018-07-10T18:08:03.629Z,99710.00
2018-07-10T18:10:33.590Z,99704.00
2018-07-10T18:13:03.521Z,99708.00
2018-07-10T18:15:33.475Z,99706.00
2018-07-10T18:18:03.700Z,99711.00
2018-07-10T18:20:33.628Z,99711.00
2018-07-10T18:23:04.460Z,99707.00
2018-07-10T18:25:34.460Z,99704.00
2018-07-10T18:28:04.696Z,99706.00
2018-07-10T18:30:34.720Z,99706.00
2018-07-10T18:33:04.680Z,99707.00
2018-07-10T18:35:34.610Z,99709.00
2018-07-10T18:38:04.935Z,99716.00
2018-07-10T18:40:34.877Z,99716.00
2018-07-10T18:43:04.825Z,99718.00
2018-07-10T18:45:34.783Z,99716.00
2018-07-10T18:48:05.395Z,99728.00
2018-07-10T18:50:35.493Z,99719.00
2018-07-10T18:53:05.472Z,99731.00
2018-07-10T18:55:35.476Z,99731.00
2018-07-10T18:58:12.477Z,99725.00
2018-07-10T19:01:01.037Z,99722.00
2018-07-10T19:03:34.425Z,99724.00
2018-07-10T19:06:10.608Z,99722.00
2018-07-10T19:08:43.777Z,99723.00
2018-07-10T19:11:24.167Z,99726.00
2018-07-10T19:13:54.388Z,99723.00
2018-07-10T19:16:24.768Z,99723.00
2018-07-10T19:19:00.439Z,99727.00
2018-07-10T19:21:33.005Z,99733.00
2018-07-10T19:24:11.756Z,99739.00
2018-07-10T19:26:41.807Z,99741.00
2018-07-10T19:29:23.299Z,99739.00
2018-07-10T19:31:54.054Z,99741.00
2018-07-10T19:34:24.003Z,99744.00
2018-07-10T19:36:54.017Z,99748.00
2018-07-10T19:39:24.032Z,99747.00
2018-07-10T19:41:54.171Z,99748.00
2018-07-10T19:44:24.168Z,99750.00
2018-07-10T19:46:55.103Z,99751.00
2018-07-10T19:49:25.392Z,99756.00
2018-07-10T19:51:55.507Z,99758.00
2018-07-10T19:54:25.378Z,99764.00
2018-07-10T19:56:55.248Z,99769.00
2018-07-10T19:59:25.213Z,99769.00
2018-07-10T20:01:58.580Z,99770.00
2018-07-10T20:04:43.340Z,99770.00
2018-07-10T20:07:24.500Z,99776.00
2018-07-10T20:10:30.442Z,99773.00
2018-07-10T20:13:10.224Z,99771.00
2018-07-10T20:15:49.636Z,99774.00
2018-07-10T20:20:33.723Z,99769.00
2018-07-10T20:23:26.901Z,99771.00
2018-07-10T20:26:21.851Z,99773.00
2018-07-10T20:29:01.335Z,99772.00
2018-07-10T20:32:06.352Z,99775.00
2018-07-10T20:34:50.587Z,99776.00
2018-07-10T20:37:26.755Z,99770.00
2018-07-10T20:39:56.708Z,99775.00
2018-07-10T20:42:34.137Z,99776.00
2018-07-10T20:45:07.744Z,99777.00
2018-07-10T20:47:49.868Z,99779.00
2018-07-10T20:52:51.306Z,99778.00
2018-07-10T20:55:22.348Z,99777.00
2018-07-10T20:58:03.456Z,99777.00
2018-07-10T21:00:57.007Z,99779.00
2018-07-10T21:04:13.428Z,99779.00
2018-07-10T21:06:55.215Z,99779.00
2018-07-10T21:10:40.089Z,99786.00
2018-07-10T21:14:23.036Z,99786.00
2018-07-10T21:17:15.012Z,99796.00
2018-07-10T21:19:55.559Z,99803.00
2018-07-10T21:22:39.846Z,99806.00
2018-07-10T21:25:51.919Z,99808.00
2018-07-10T21:28:39.436Z,99818.00
2018-07-10T21:31:51.979Z,99819.00
2018-07-10T21:34:27.909Z,99809.00
2018-07-10T21:38:18.403Z,99804.00
2018-07-10T21:41:03.840Z,99801.00
2018-07-10T21:43:47.218Z,99796.00
2018-07-10T21:49:43.358Z,99791.00
2018-07-10T21:52:13.855Z,99792.00
2018-07-10T21:54:44.404Z,99790.00
2018-07-10T21:57:17.391Z,99792.00
2018-07-10T21:59:57.663Z,99790.00
2018-07-10T22:02:28.104Z,99786.00
2018-07-10T22:04:58.680Z,99782.00
2018-07-10T22:07:29.792Z,99784.00
2018-07-10T22:10:01.609Z,99776.00
2018-07-10T22:12:31.600Z,99782.00
2018-07-10T22:15:01.556Z,99784.00
2018-07-10T22:17:31.716Z,99784.00
2018-07-10T22:20:01.744Z,99792.00
2018-07-10T22:22:32.882Z,99790.00
2018-07-10T22:25:05.762Z,99784.00
2018-07-10T22:27:39.917Z,99784.00
2018-07-10T22:30:20.451Z,99785.00
2018-07-10T22:32:55.451Z,99780.00
2018-07-10T22:35:25.279Z,99780.00
2018-07-10T22:37:55.403Z,99792.00
2018-07-10T22:40:25.347Z,99796.00
2018-07-10T22:42:55.964Z,99791.00
2018-07-10T22:45:27.450Z,99784.00
2018-07-10T22:47:57.518Z,99790.00
2018-07-10T22:50:28.080Z,99781.00
2018-07-10T22:53:00.877Z,99780.00
2018-07-10T22:55:32.593Z,99777.00
2018-07-10T22:58:07.056Z,99782.00
2018-07-10T23:00:38.165Z,99782.00
2018-07-10T23:03:22.511Z,99782.00
2018-07-10T23:05:53.118Z,99786.00
2018-07-10T23:08:30.585Z,99779.00
2018-07-10T23:11:03.432Z,99776.00
2018-07-10T23:13:36.335Z,99775.00
2018-07-10T23:16:06.552Z,99771.00
2018-07-10T23:18:36.430Z,99767.00
2018-07-10T23:21:06.451Z,99773.00
2018-07-10T23:23:36.514Z,99774.00
2018-07-10T23:26:06.604Z,99772.00
2018-07-10T23:28:37.099Z,99770.00
2018-07-10T23:31:07.113Z,99765.00
2018-07-10T23:33:37.499Z,99764.00
2018-07-10T23:36:07.742Z,99763.00
2018-07-10T23:38:53.804Z,99757.00
2018-07-10T23:41:33.450Z,99755.00
2018-07-10T23:44:05.524Z,99757.00
2018-07-10T23:46:50.332Z,99764.00
2018-07-10T23:49:20.751Z,99760.00
2018-07-10T23:52:07.960Z,99759.00
2018-07-10T23:54:37.915Z,99756.00
2018-07-10T23:57:07.971Z,99757.00
2018-07-10T23:59:37.884Z,99756.00
